sensor_id;sensor_type;location;lat;lon;timestamp;temperature;humidity
60717;DHT22;46566;52.700;6.192;2023-06-22T00:00:59;19.30;99.90
60717;DHT22;46566;52.700;6.192;2023-06-22T00:03:26;19.20;99.90
60717;DHT22;46566;52.700;6.192;2023-06-22T00:05:53;19.20;99.90
60717;DHT22;46566;52.700;6.192;2023-06-22T00:08:19;19.10;99.90
60717;DHT22;46566;52.700;6.192;2023-06-22T00:10:45;19.10;99.90
60717;DHT22;46566;52.700;6.192;2023-06-22T00:13:12;19.10;99.90
60717;DHT22;46566;52.700;6.192;2023-06-22T00:15:40;19.10;99.90
60717;DHT22;46566;52.700;6.192;2023-06-22T00:18:10;19.10;99.90
60717;DHT22;46566;52.700;6.192;2023-06-22T00:20:36;19.10;99.90
60717;DHT22;46566;52.700;6.192;2023-06-22T00:23:03;19.10;99.90
60717;DHT22;46566;52.700;6.192;2023-06-22T00:25:39;19.10;99.90
60717;DHT22;46566;52.700;6.192;2023-06-22T00:28:07;19.10;99.90
60717;DHT22;46566;52.700;6.192;2023-06-22T00:30:34;19.00;99.90
60717;DHT22;46566;52.700;6.192;2023-06-22T00:33:00;19.00;99.90
60717;DHT22;46566;52.700;6.192;2023-06-22T00:35:33;19.00;99.90
60717;DHT22;46566;52.700;6.192;2023-06-22T00:38:00;19.00;99.90
60717;DHT22;46566;52.700;6.192;2023-06-22T00:40:27;19.00;99.90
60717;DHT22;46566;52.700;6.192;2023-06-22T00:42:53;19.00;99.90
60717;DHT22;46566;52.700;6.192;2023-06-22T00:45:19;19.00;99.90
60717;DHT22;46566;52.700;6.192;2023-06-22T00:47:45;19.10;99.90
60717;DHT22;46566;52.700;6.192;2023-06-22T00:50:17;19.10;99.90
60717;DHT22;46566;52.700;6.192;2023-06-22T00:52:44;19.10;99.90
60717;DHT22;46566;52.700;6.192;2023-06-22T00:55:10;19.10;99.90
60717;DHT22;46566;52.700;6.192;2023-06-22T00:57:35;19.10;99.90
60717;DHT22;46566;52.700;6.192;2023-06-22T01:00:03;19.00;99.90
60717;DHT22;46566;52.700;6.192;2023-06-22T01:02:34;19.00;99.90
60717;DHT22;46566;52.700;6.192;2023-06-22T01:04:59;19.00;99.90
60717;DHT22;46566;52.700;6.192;2023-06-22T01:10:27;19.00;99.90
60717;DHT22;46566;52.700;6.192;2023-06-22T01:13:01;19.00;99.90
60717;DHT22;46566;52.700;6.192;2023-06-22T01:15:37;19.00;99.90
60717;DHT22;46566;52.700;6.192;2023-06-22T01:18:05;19.00;99.90
60717;DHT22;46566;52.700;6.192;2023-06-22T01:20:34;19.00;99.90
60717;DHT22;46566;52.700;6.192;2023-06-22T01:23:21;19.00;99.90
60717;DHT22;46566;52.700;6.192;2023-06-22T01:26:26;19.00;99.90
60717;DHT22;46566;52.700;6.192;2023-06-22T01:28:55;19.00;99.90
60717;DHT22;46566;52.700;6.192;2023-06-22T01:31:25;18.90;99.90
60717;DHT22;46566;52.700;6.192;2023-06-22T01:33:56;18.90;99.90
60717;DHT22;46566;52.700;6.192;2023-06-22T01:36:23;18.90;99.90
60717;DHT22;46566;52.700;6.192;2023-06-22T01:38:49;18.90;99.90
60717;DHT22;46566;52.700;6.192;2023-06-22T01:41:19;18.80;99.90
60717;DHT22;46566;52.700;6.192;2023-06-22T01:43:46;18.80;99.90
60717;DHT22;46566;52.700;6.192;2023-06-22T01:46:13;18.80;99.90
60717;DHT22;46566;52.700;6.192;2023-06-22T01:48:40;18.70;99.90
60717;DHT22;46566;52.700;6.192;2023-06-22T01:51:06;18.70;99.90
60717;DHT22;46566;52.700;6.192;2023-06-22T01:53:32;18.70;99.90
60717;DHT22;46566;52.700;6.192;2023-06-22T01:55:58;18.60;99.90
60717;DHT22;46566;52.700;6.192;2023-06-22T01:58:26;18.50;99.90
60717;DHT22;46566;52.700;6.192;2023-06-22T02:01:13;18.50;99.90
60717;DHT22;46566;52.700;6.192;2023-06-22T02:03:46;18.40;99.90
60717;DHT22;46566;52.700;6.192;2023-06-22T02:06:24;18.40;99.90
60717;DHT22;46566;52.700;6.192;2023-06-22T02:08:55;18.30;99.90
60717;DHT22;46566;52.700;6.192;2023-06-22T02:11:23;18.40;99.90
60717;DHT22;46566;52.700;6.192;2023-06-22T02:13:50;18.40;99.90
60717;DHT22;46566;52.700;6.192;2023-06-22T02:16:17;18.30;99.90
60717;DHT22;46566;52.700;6.192;2023-06-22T02:18:51;18.40;99.90
60717;DHT22;46566;52.700;6.192;2023-06-22T02:21:17;18.40;99.90
60717;DHT22;46566;52.700;6.192;2023-06-22T02:23:43;18.30;99.90
60717;DHT22;46566;52.700;6.192;2023-06-22T02:26:09;18.30;99.90
60717;DHT22;46566;52.700;6.192;2023-06-22T02:28:35;18.20;99.90
60717;DHT22;46566;52.700;6.192;2023-06-22T02:31:00;18.20;99.90
60717;DHT22;46566;52.700;6.192;2023-06-22T02:33:26;18.20;99.90
60717;DHT22;46566;52.700;6.192;2023-06-22T02:35:52;18.30;99.90
60717;DHT22;46566;52.700;6.192;2023-06-22T02:38:21;18.30;99.90
60717;DHT22;46566;52.700;6.192;2023-06-22T02:40:51;18.30;99.90
60717;DHT22;46566;52.700;6.192;2023-06-22T02:43:16;18.30;99.90
60717;DHT22;46566;52.700;6.192;2023-06-22T02:45:43;18.30;99.90
60717;DHT22;46566;52.700;6.192;2023-06-22T02:48:10;18.30;99.90
60717;DHT22;46566;52.700;6.192;2023-06-22T02:50:36;18.20;99.90
60717;DHT22;46566;52.700;6.192;2023-06-22T02:53:03;18.20;99.90
60717;DHT22;46566;52.700;6.192;2023-06-22T02:55:32;18.20;99.90
60717;DHT22;46566;52.700;6.192;2023-06-22T02:57:59;18.10;99.90
60717;DHT22;46566;52.700;6.192;2023-06-22T03:00:26;18.10;99.90
60717;DHT22;46566;52.700;6.192;2023-06-22T03:02:56;18.00;99.90
60717;DHT22;46566;52.700;6.192;2023-06-22T03:05:23;18.10;99.90
60717;DHT22;46566;52.700;6.192;2023-06-22T03:07:48;18.10;99.90
60717;DHT22;46566;52.700;6.192;2023-06-22T03:10:15;18.10;99.90
60717;DHT22;46566;52.700;6.192;2023-06-22T03:12:42;18.00;99.90
60717;DHT22;46566;52.700;6.192;2023-06-22T03:15:12;18.00;99.90
60717;DHT22;46566;52.700;6.192;2023-06-22T03:17:38;18.00;99.90
60717;DHT22;46566;52.700;6.192;2023-06-22T03:20:07;17.90;99.90
60717;DHT22;46566;52.700;6.192;2023-06-22T03:22:38;17.80;99.90
60717;DHT22;46566;52.700;6.192;2023-06-22T03:25:05;17.80;99.90
60717;DHT22;46566;52.700;6.192;2023-06-22T03:27:37;17.70;99.90
60717;DHT22;46566;52.700;6.192;2023-06-22T03:30:03;17.70;99.90
60717;DHT22;46566;52.700;6.192;2023-06-22T03:32:30;17.70;99.90
60717;DHT22;46566;52.700;6.192;2023-06-22T03:34:58;17.60;99.90
60717;DHT22;46566;52.700;6.192;2023-06-22T03:37:27;17.60;99.90
60717;DHT22;46566;52.700;6.192;2023-06-22T03:39:53;17.60;99.90
60717;DHT22;46566;52.700;6.192;2023-06-22T03:42:19;17.50;99.90
60717;DHT22;46566;52.700;6.192;2023-06-22T03:44:46;17.50;99.90
60717;DHT22;46566;52.700;6.192;2023-06-22T03:47:12;17.50;99.90
60717;DHT22;46566;52.700;6.192;2023-06-22T03:49:38;17.50;99.90
60717;DHT22;46566;52.700;6.192;2023-06-22T03:52:04;17.40;99.90
60717;DHT22;46566;52.700;6.192;2023-06-22T03:54:33;17.40;99.90
60717;DHT22;46566;52.700;6.192;2023-06-22T03:56:58;17.40;99.90
60717;DHT22;46566;52.700;6.192;2023-06-22T03:59:25;17.40;99.90
60717;DHT22;46566;52.700;6.192;2023-06-22T04:01:51;17.40;99.90
60717;DHT22;46566;52.700;6.192;2023-06-22T04:04:19;17.30;99.90
60717;DHT22;46566;52.700;6.192;2023-06-22T04:06:45;17.30;99.90
60717;DHT22;46566;52.700;6.192;2023-06-22T04:09:11;17.30;99.90
60717;DHT22;46566;52.700;6.192;2023-06-22T04:11:37;17.40;99.90
60717;DHT22;46566;52.700;6.192;2023-06-22T04:14:02;17.40;99.90
60717;DHT22;46566;52.700;6.192;2023-06-22T04:16:28;17.40;99.90
60717;DHT22;46566;52.700;6.192;2023-06-22T04:18:54;17.30;99.90
60717;DHT22;46566;52.700;6.192;2023-06-22T04:21:19;17.30;99.90
60717;DHT22;46566;52.700;6.192;2023-06-22T04:23:46;17.30;99.90
60717;DHT22;46566;52.700;6.192;2023-06-22T04:26:12;17.30;99.90
60717;DHT22;46566;52.700;6.192;2023-06-22T04:28:39;17.30;99.90
60717;DHT22;46566;52.700;6.192;2023-06-22T04:31:05;17.40;99.90
60717;DHT22;46566;52.700;6.192;2023-06-22T04:33:31;17.40;99.90
60717;DHT22;46566;52.700;6.192;2023-06-22T04:35:58;17.40;99.90
60717;DHT22;46566;52.700;6.192;2023-06-22T04:38:26;17.40;99.90
60717;DHT22;46566;52.700;6.192;2023-06-22T04:40:52;17.40;99.90
60717;DHT22;46566;52.700;6.192;2023-06-22T04:43:19;17.40;99.90
60717;DHT22;46566;52.700;6.192;2023-06-22T04:45:45;17.40;99.90
60717;DHT22;46566;52.700;6.192;2023-06-22T04:48:11;17.40;99.90
60717;DHT22;46566;52.700;6.192;2023-06-22T04:50:41;17.40;99.90
60717;DHT22;46566;52.700;6.192;2023-06-22T04:53:07;17.40;99.90
60717;DHT22;46566;52.700;6.192;2023-06-22T04:55:35;17.40;99.90
60717;DHT22;46566;52.700;6.192;2023-06-22T04:58:03;17.40;99.90
60717;DHT22;46566;52.700;6.192;2023-06-22T05:00:31;17.50;99.90
60717;DHT22;46566;52.700;6.192;2023-06-22T05:02:57;17.40;99.90
60717;DHT22;46566;52.700;6.192;2023-06-22T05:05:23;17.50;99.90
60717;DHT22;46566;52.700;6.192;2023-06-22T05:07:50;17.50;99.90
60717;DHT22;46566;52.700;6.192;2023-06-22T05:10:19;17.50;99.90
60717;DHT22;46566;52.700;6.192;2023-06-22T05:12:46;17.60;99.90
60717;DHT22;46566;52.700;6.192;2023-06-22T05:15:11;17.60;99.90
60717;DHT22;46566;52.700;6.192;2023-06-22T05:17:37;17.60;99.90
60717;DHT22;46566;52.700;6.192;2023-06-22T05:20:17;17.70;99.90
60717;DHT22;46566;52.700;6.192;2023-06-22T05:22:44;17.70;99.90
60717;DHT22;46566;52.700;6.192;2023-06-22T05:25:10;17.80;99.90
60717;DHT22;46566;52.700;6.192;2023-06-22T05:27:36;17.80;99.90
60717;DHT22;46566;52.700;6.192;2023-06-22T05:30:08;17.90;99.90
60717;DHT22;46566;52.700;6.192;2023-06-22T05:32:34;17.90;99.90
60717;DHT22;46566;52.700;6.192;2023-06-22T05:35:00;18.00;99.90
60717;DHT22;46566;52.700;6.192;2023-06-22T05:37:26;18.00;99.90
60717;DHT22;46566;52.700;6.192;2023-06-22T05:39:51;18.10;99.90
60717;DHT22;46566;52.700;6.192;2023-06-22T05:42:17;18.10;99.90
60717;DHT22;46566;52.700;6.192;2023-06-22T05:44:43;18.10;99.90
60717;DHT22;46566;52.700;6.192;2023-06-22T05:47:08;18.10;99.90
60717;DHT22;46566;52.700;6.192;2023-06-22T05:49:34;18.20;99.90
60717;DHT22;46566;52.700;6.192;2023-06-22T05:54:27;18.30;99.90
60717;DHT22;46566;52.700;6.192;2023-06-22T05:56:53;18.30;99.90
60717;DHT22;46566;52.700;6.192;2023-06-22T05:59:19;18.40;99.90
60717;DHT22;46566;52.700;6.192;2023-06-22T06:01:45;18.40;99.90
60717;DHT22;46566;52.700;6.192;2023-06-22T06:04:18;18.40;99.90
60717;DHT22;46566;52.700;6.192;2023-06-22T06:06:44;18.50;99.90
60717;DHT22;46566;52.700;6.192;2023-06-22T06:09:15;18.50;99.90
60717;DHT22;46566;52.700;6.192;2023-06-22T06:16:33;18.80;99.90
60717;DHT22;46566;52.700;6.192;2023-06-22T06:18:59;18.80;99.90
60717;DHT22;46566;52.700;6.192;2023-06-22T06:21:25;18.90;99.90
60717;DHT22;46566;52.700;6.192;2023-06-22T06:23:50;19.00;99.90
60717;DHT22;46566;52.700;6.192;2023-06-22T06:26:16;19.10;99.90
60717;DHT22;46566;52.700;6.192;2023-06-22T06:31:12;19.20;99.90
60717;DHT22;46566;52.700;6.192;2023-06-22T06:45:52;19.40;99.90
60717;DHT22;46566;52.700;6.192;2023-06-22T07:35:01;20.00;99.90
60717;DHT22;46566;52.700;6.192;2023-06-22T07:37:28;21.30;99.90
60717;DHT22;46566;52.700;6.192;2023-06-22T07:39:55;21.40;99.90
60717;DHT22;46566;52.700;6.192;2023-06-22T07:42:27;21.50;99.90
60717;DHT22;46566;52.700;6.192;2023-06-22T07:44:53;21.60;99.90
60717;DHT22;46566;52.700;6.192;2023-06-22T07:57:06;21.60;99.90
60717;DHT22;46566;52.700;6.192;2023-06-22T07:59:32;22.20;99.90
60717;DHT22;46566;52.700;6.192;2023-06-22T08:01:58;22.20;99.90
60717;DHT22;46566;52.700;6.192;2023-06-22T08:04:23;22.30;99.90
60717;DHT22;46566;52.700;6.192;2023-06-22T08:06:49;22.40;99.90
60717;DHT22;46566;52.700;6.192;2023-06-22T08:09:15;22.50;99.90
60717;DHT22;46566;52.700;6.192;2023-06-22T08:28:43;22.60;99.90
60717;DHT22;46566;52.700;6.192;2023-06-22T08:31:08;23.60;99.90
60717;DHT22;46566;52.700;6.192;2023-06-22T08:33:34;23.70;99.90
60717;DHT22;46566;52.700;6.192;2023-06-22T08:40:52;24.00;99.90
60717;DHT22;46566;52.700;6.192;2023-06-22T08:43:18;25.50;99.90
60717;DHT22;46566;52.700;6.192;2023-06-22T08:45:44;26.00;99.90
60717;DHT22;46566;52.700;6.192;2023-06-22T08:51:14;27.00;99.90
60717;DHT22;46566;52.700;6.192;2023-06-22T08:54:05;27.50;99.90
60717;DHT22;46566;52.700;6.192;2023-06-22T08:56:31;28.00;99.90
60717;DHT22;46566;52.700;6.192;2023-06-22T08:58:57;28.00;99.90
60717;DHT22;46566;52.700;6.192;2023-06-22T09:01:22;28.30;99.90
60717;DHT22;46566;52.700;6.192;2023-06-22T09:04:01;28.60;99.90
60717;DHT22;46566;52.700;6.192;2023-06-22T09:06:26;29.00;96.80
60717;DHT22;46566;52.700;6.192;2023-06-22T09:08:52;29.10;95.70
60717;DHT22;46566;52.700;6.192;2023-06-22T09:11:18;29.40;93.70
60717;DHT22;46566;52.700;6.192;2023-06-22T09:13:43;29.40;91.40
60717;DHT22;46566;52.700;6.192;2023-06-22T09:21:17;30.00;83.30
60717;DHT22;46566;52.700;6.192;2023-06-22T09:23:43;30.30;88.70
60717;DHT22;46566;52.700;6.192;2023-06-22T09:26:09;30.70;85.40
60717;DHT22;46566;52.700;6.192;2023-06-22T09:29:00;30.70;76.60
60717;DHT22;46566;52.700;6.192;2023-06-22T09:33:53;30.60;76.90
60717;DHT22;46566;52.700;6.192;2023-06-22T09:36:19;30.90;80.70
60717;DHT22;46566;52.700;6.192;2023-06-22T09:39:10;31.10;78.10
60717;DHT22;46566;52.700;6.192;2023-06-22T09:41:35;31.20;74.60
60717;DHT22;46566;52.700;6.192;2023-06-22T09:44:01;31.00;73.50
60717;DHT22;46566;52.700;6.192;2023-06-22T09:46:27;31.00;71.80
60717;DHT22;46566;52.700;6.192;2023-06-22T09:54:51;30.60;73.20
60717;DHT22;46566;52.700;6.192;2023-06-22T09:57:17;30.60;73.60
60717;DHT22;46566;52.700;6.192;2023-06-22T09:59:42;30.70;72.40
60717;DHT22;46566;52.700;6.192;2023-06-22T10:10:56;30.80;70.50
60717;DHT22;46566;52.700;6.192;2023-06-22T10:13:21;30.60;69.70
60717;DHT22;46566;52.700;6.192;2023-06-22T10:15:47;30.60;69.60
60717;DHT22;46566;52.700;6.192;2023-06-22T10:18:31;30.70;69.10
60717;DHT22;46566;52.700;6.192;2023-06-22T10:20:57;30.80;68.20
60717;DHT22;46566;52.700;6.192;2023-06-22T10:23:23;31.00;69.70
60717;DHT22;46566;52.700;6.192;2023-06-22T10:25:48;31.10;67.70
60717;DHT22;46566;52.700;6.192;2023-06-22T10:28:29;31.10;69.50
60717;DHT22;46566;52.700;6.192;2023-06-22T10:30:55;31.00;67.20
60717;DHT22;46566;52.700;6.192;2023-06-22T10:33:20;31.10;67.30
60717;DHT22;46566;52.700;6.192;2023-06-22T10:35:46;31.20;67.90
60717;DHT22;46566;52.700;6.192;2023-06-22T10:38:12;31.30;63.50
60717;DHT22;46566;52.700;6.192;2023-06-22T10:41:03;31.20;64.20
60717;DHT22;46566;52.700;6.192;2023-06-22T10:43:29;31.00;64.60
60717;DHT22;46566;52.700;6.192;2023-06-22T10:45:54;30.80;65.70
60717;DHT22;46566;52.700;6.192;2023-06-22T10:48:20;30.60;64.80
60717;DHT22;46566;52.700;6.192;2023-06-22T10:53:50;30.40;65.70
60717;DHT22;46566;52.700;6.192;2023-06-22T10:56:17;30.20;66.90
60717;DHT22;46566;52.700;6.192;2023-06-22T11:01:32;30.00;67.10
60717;DHT22;46566;52.700;6.192;2023-06-22T11:06:47;29.60;65.50
60717;DHT22;46566;52.700;6.192;2023-06-22T11:12:34;29.40;67.90
60717;DHT22;46566;52.700;6.192;2023-06-22T11:14:59;29.20;67.50
60717;DHT22;46566;52.700;6.192;2023-06-22T11:20:20;28.80;69.30
60717;DHT22;46566;52.700;6.192;2023-06-22T11:22:46;28.90;69.00
60717;DHT22;46566;52.700;6.192;2023-06-22T11:25:12;28.80;70.10
60717;DHT22;46566;52.700;6.192;2023-06-22T11:27:37;28.70;69.10
60717;DHT22;46566;52.700;6.192;2023-06-22T11:30:04;28.60;69.70
60717;DHT22;46566;52.700;6.192;2023-06-22T11:32:42;28.50;69.60
60717;DHT22;46566;52.700;6.192;2023-06-22T11:35:08;28.40;69.90
60717;DHT22;46566;52.700;6.192;2023-06-22T11:37:33;28.30;70.80
60717;DHT22;46566;52.700;6.192;2023-06-22T11:39:59;28.30;72.30
60717;DHT22;46566;52.700;6.192;2023-06-22T11:42:25;28.30;73.20
60717;DHT22;46566;52.700;6.192;2023-06-22T11:45:16;28.30;73.10
60717;DHT22;46566;52.700;6.192;2023-06-22T11:47:43;28.10;72.50
60717;DHT22;46566;52.700;6.192;2023-06-22T11:50:09;28.00;74.20
60717;DHT22;46566;52.700;6.192;2023-06-22T11:52:35;27.90;76.10
60717;DHT22;46566;52.700;6.192;2023-06-22T11:57:56;28.00;75.10
60717;DHT22;46566;52.700;6.192;2023-06-22T12:00:25;27.90;74.40
60717;DHT22;46566;52.700;6.192;2023-06-22T12:03:16;27.90;75.40
60717;DHT22;46566;52.700;6.192;2023-06-22T12:09:03;27.90;75.50
60717;DHT22;46566;52.700;6.192;2023-06-22T12:11:30;27.80;76.30
60717;DHT22;46566;52.700;6.192;2023-06-22T12:13:56;27.80;74.90
60717;DHT22;46566;52.700;6.192;2023-06-22T12:19:17;27.70;76.80
60717;DHT22;46566;52.700;6.192;2023-06-22T12:21:42;27.70;75.30
60717;DHT22;46566;52.700;6.192;2023-06-22T12:24:11;27.70;75.40
60717;DHT22;46566;52.700;6.192;2023-06-22T12:26:49;27.60;75.60
60717;DHT22;46566;52.700;6.192;2023-06-22T12:29:14;27.60;76.00
60717;DHT22;46566;52.700;6.192;2023-06-22T12:31:40;27.70;76.40
60717;DHT22;46566;52.700;6.192;2023-06-22T12:34:07;27.60;75.70
60717;DHT22;46566;52.700;6.192;2023-06-22T12:36:32;27.60;76.20
60717;DHT22;46566;52.700;6.192;2023-06-22T12:39:23;27.60;75.20
60717;DHT22;46566;52.700;6.192;2023-06-22T12:41:49;27.70;75.90
60717;DHT22;46566;52.700;6.192;2023-06-22T12:49:52;27.40;72.00
60717;DHT22;46566;52.700;6.192;2023-06-22T12:52:18;27.30;73.70
60717;DHT22;46566;52.700;6.192;2023-06-22T12:54:56;27.20;75.00
60717;DHT22;46566;52.700;6.192;2023-06-22T12:57:22;27.20;76.80
60717;DHT22;46566;52.700;6.192;2023-06-22T12:59:48;27.10;74.70
60717;DHT22;46566;52.700;6.192;2023-06-22T13:02:14;27.10;75.70
60717;DHT22;46566;52.700;6.192;2023-06-22T13:04:40;27.00;77.60
60717;DHT22;46566;52.700;6.192;2023-06-22T13:07:31;27.00;78.30
60717;DHT22;46566;52.700;6.192;2023-06-22T13:15:42;26.80;85.90
60717;DHT22;46566;52.700;6.192;2023-06-22T13:18:08;26.70;89.40
60717;DHT22;46566;52.700;6.192;2023-06-22T13:21:00;26.70;93.40
60717;DHT22;46566;52.700;6.192;2023-06-22T13:23:26;26.70;96.00
60717;DHT22;46566;52.700;6.192;2023-06-22T13:25:51;26.60;98.80
60717;DHT22;46566;52.700;6.192;2023-06-22T13:28:17;26.60;99.90
60717;DHT22;46566;52.700;6.192;2023-06-22T13:31:07;26.50;99.90
60717;DHT22;46566;52.700;6.192;2023-06-22T13:33:33;26.40;99.90
60717;DHT22;46566;52.700;6.192;2023-06-22T13:35:58;26.20;99.90
60717;DHT22;46566;52.700;6.192;2023-06-22T13:38:24;26.00;99.90
60717;DHT22;46566;52.700;6.192;2023-06-22T13:41:15;26.00;99.90
60717;DHT22;46566;52.700;6.192;2023-06-22T13:43:41;26.00;99.90
60717;DHT22;46566;52.700;6.192;2023-06-22T13:51:52;26.00;99.90
60717;DHT22;46566;52.700;6.192;2023-06-22T13:54:18;25.90;99.90
60717;DHT22;46566;52.700;6.192;2023-06-22T13:57:09;25.80;99.90
60717;DHT22;46566;52.700;6.192;2023-06-22T13:59:34;25.80;99.90
60717;DHT22;46566;52.700;6.192;2023-06-22T14:02:00;25.70;99.90
60717;DHT22;46566;52.700;6.192;2023-06-22T14:04:26;25.70;99.90
60717;DHT22;46566;52.700;6.192;2023-06-22T14:07:16;25.60;99.90
60717;DHT22;46566;52.700;6.192;2023-06-22T14:09:42;25.60;99.90
60717;DHT22;46566;52.700;6.192;2023-06-22T14:12:08;25.60;99.90
60717;DHT22;46566;52.700;6.192;2023-06-22T14:14:34;25.50;99.90
60717;DHT22;46566;52.700;6.192;2023-06-22T14:17:24;25.40;99.90
60717;DHT22;46566;52.700;6.192;2023-06-22T14:19:52;25.20;99.90
60717;DHT22;46566;52.700;6.192;2023-06-22T14:22:21;25.10;99.90
60717;DHT22;46566;52.700;6.192;2023-06-22T14:25:06;25.00;99.90
60717;DHT22;46566;52.700;6.192;2023-06-22T14:27:31;25.00;99.90
60717;DHT22;46566;52.700;6.192;2023-06-22T14:29:57;24.90;99.90
60717;DHT22;46566;52.700;6.192;2023-06-22T14:32:23;24.80;99.90
60717;DHT22;46566;52.700;6.192;2023-06-22T14:34:49;24.60;99.90
60717;DHT22;46566;52.700;6.192;2023-06-22T14:37:41;24.60;99.90
60717;DHT22;46566;52.700;6.192;2023-06-22T14:40:07;24.60;99.90
60717;DHT22;46566;52.700;6.192;2023-06-22T14:42:32;24.50;99.90
60717;DHT22;46566;52.700;6.192;2023-06-22T14:44:58;24.40;99.90
60717;DHT22;46566;52.700;6.192;2023-06-22T14:47:52;24.40;99.90
60717;DHT22;46566;52.700;6.192;2023-06-22T14:50:17;24.30;99.90
60717;DHT22;46566;52.700;6.192;2023-06-22T14:52:44;24.10;99.90
60717;DHT22;46566;52.700;6.192;2023-06-22T14:55:28;24.10;99.90
60717;DHT22;46566;52.700;6.192;2023-06-22T14:57:54;24.10;99.90
60717;DHT22;46566;52.700;6.192;2023-06-22T15:00:19;24.10;99.90
60717;DHT22;46566;52.700;6.192;2023-06-22T15:02:45;24.00;99.90
60717;DHT22;46566;52.700;6.192;2023-06-22T15:05:11;23.90;99.90
60717;DHT22;46566;52.700;6.192;2023-06-22T15:08:02;23.90;99.90
60717;DHT22;46566;52.700;6.192;2023-06-22T15:10:27;23.90;99.90
60717;DHT22;46566;52.700;6.192;2023-06-22T15:12:53;23.80;99.90
60717;DHT22;46566;52.700;6.192;2023-06-22T15:15:19;23.80;99.90
60717;DHT22;46566;52.700;6.192;2023-06-22T15:18:10;23.80;99.90
60717;DHT22;46566;52.700;6.192;2023-06-22T15:20:37;23.70;99.90
60717;DHT22;46566;52.700;6.192;2023-06-22T15:23:04;23.60;99.90
60717;DHT22;46566;52.700;6.192;2023-06-22T15:25:29;23.50;99.90
60717;DHT22;46566;52.700;6.192;2023-06-22T15:31:00;23.40;99.90
60717;DHT22;46566;52.700;6.192;2023-06-22T15:33:26;23.30;99.90
60717;DHT22;46566;52.700;6.192;2023-06-22T15:36:01;23.20;99.90
60717;DHT22;46566;52.700;6.192;2023-06-22T15:40:56;23.00;99.90
60717;DHT22;46566;52.700;6.192;2023-06-22T15:43:21;23.00;99.90
60717;DHT22;46566;52.700;6.192;2023-06-22T15:45:47;22.80;99.90
60717;DHT22;46566;52.700;6.192;2023-06-22T15:48:40;22.80;99.90
60717;DHT22;46566;52.700;6.192;2023-06-22T15:51:05;22.70;99.90
60717;DHT22;46566;52.700;6.192;2023-06-22T15:53:31;22.60;99.90
60717;DHT22;46566;52.700;6.192;2023-06-22T15:55:57;22.60;99.90
60717;DHT22;46566;52.700;6.192;2023-06-22T15:58:33;22.50;99.90
60717;DHT22;46566;52.700;6.192;2023-06-22T16:01:24;22.40;99.90
60717;DHT22;46566;52.700;6.192;2023-06-22T16:09:50;22.20;99.90
60717;DHT22;46566;52.700;6.192;2023-06-22T16:12:16;22.10;99.90
60717;DHT22;46566;52.700;6.192;2023-06-22T16:14:41;22.10;99.90
60717;DHT22;46566;52.700;6.192;2023-06-22T16:17:07;22.10;99.90
60717;DHT22;46566;52.700;6.192;2023-06-22T16:19:33;22.00;99.90
60717;DHT22;46566;52.700;6.192;2023-06-22T16:22:24;22.00;99.90
60717;DHT22;46566;52.700;6.192;2023-06-22T16:27:52;22.00;99.90
60717;DHT22;46566;52.700;6.192;2023-06-22T16:30:17;21.90;99.90
60717;DHT22;46566;52.700;6.192;2023-06-22T16:32:53;21.80;99.90
60717;DHT22;46566;52.700;6.192;2023-06-22T16:35:20;21.80;99.90
60717;DHT22;46566;52.700;6.192;2023-06-22T16:40:34;21.90;99.90
60717;DHT22;46566;52.700;6.192;2023-06-22T16:43:00;21.90;99.90
60717;DHT22;46566;52.700;6.192;2023-06-22T16:45:26;21.80;99.90
60717;DHT22;46566;52.700;6.192;2023-06-22T16:48:17;21.80;99.90
60717;DHT22;46566;52.700;6.192;2023-06-22T16:50:43;21.70;99.90
60717;DHT22;46566;52.700;6.192;2023-06-22T16:53:09;21.70;99.90
60717;DHT22;46566;52.700;6.192;2023-06-22T16:55:36;21.70;99.90
60717;DHT22;46566;52.700;6.192;2023-06-22T17:00:54;21.50;99.90
60717;DHT22;46566;52.700;6.192;2023-06-22T17:03:26;21.50;99.90
60717;DHT22;46566;52.700;6.192;2023-06-22T17:06:18;21.50;99.90
60717;DHT22;46566;52.700;6.192;2023-06-22T17:08:44;21.40;99.90
60717;DHT22;46566;52.700;6.192;2023-06-22T17:11:10;21.30;99.90
60717;DHT22;46566;52.700;6.192;2023-06-22T17:13:38;21.30;99.90
60717;DHT22;46566;52.700;6.192;2023-06-22T17:16:31;21.30;99.90
60717;DHT22;46566;52.700;6.192;2023-06-22T17:18:59;21.30;99.90
60717;DHT22;46566;52.700;6.192;2023-06-22T17:21:30;21.30;99.90
60717;DHT22;46566;52.700;6.192;2023-06-22T17:27:10;21.20;99.90
60717;DHT22;46566;52.700;6.192;2023-06-22T17:30:03;21.20;99.90
60717;DHT22;46566;52.700;6.192;2023-06-22T17:32:30;21.10;99.90
60717;DHT22;46566;52.700;6.192;2023-06-22T17:34:55;21.10;99.90
60717;DHT22;46566;52.700;6.192;2023-06-22T17:37:46;21.00;99.90
60717;DHT22;46566;52.700;6.192;2023-06-22T17:40:18;21.00;99.90
60717;DHT22;46566;52.700;6.192;2023-06-22T17:42:44;21.00;99.90
60717;DHT22;46566;52.700;6.192;2023-06-22T17:45:42;20.90;99.90
60717;DHT22;46566;52.700;6.192;2023-06-22T17:48:08;20.90;99.90
60717;DHT22;46566;52.700;6.192;2023-06-22T17:50:39;20.90;99.90
60717;DHT22;46566;52.700;6.192;2023-06-22T17:53:27;20.90;99.90
60717;DHT22;46566;52.700;6.192;2023-06-22T17:55:53;20.90;99.90
60717;DHT22;46566;52.700;6.192;2023-06-22T17:58:19;20.90;99.90
60717;DHT22;46566;52.700;6.192;2023-06-22T18:00:47;20.90;99.90
60717;DHT22;46566;52.700;6.192;2023-06-22T18:06:08;20.80;99.90
60717;DHT22;46566;52.700;6.192;2023-06-22T18:08:35;20.70;99.90
60717;DHT22;46566;52.700;6.192;2023-06-22T18:11:04;20.70;99.90
60717;DHT22;46566;52.700;6.192;2023-06-22T18:13:57;20.70;99.90
60717;DHT22;46566;52.700;6.192;2023-06-22T18:16:24;20.60;99.90
60717;DHT22;46566;52.700;6.192;2023-06-22T18:18:51;20.60;99.90
60717;DHT22;46566;52.700;6.192;2023-06-22T18:21:36;20.60;99.90
60717;DHT22;46566;52.700;6.192;2023-06-22T18:24:02;20.60;99.90
60717;DHT22;46566;52.700;6.192;2023-06-22T18:26:28;20.50;99.90
60717;DHT22;46566;52.700;6.192;2023-06-22T18:28:55;20.50;99.90
60717;DHT22;46566;52.700;6.192;2023-06-22T18:31:23;20.40;99.90
60717;DHT22;46566;52.700;6.192;2023-06-22T18:34:14;20.40;99.90
60717;DHT22;46566;52.700;6.192;2023-06-22T18:36:45;20.30;99.90
60717;DHT22;46566;52.700;6.192;2023-06-22T18:39:12;20.30;99.90
60717;DHT22;46566;52.700;6.192;2023-06-22T18:41:54;20.20;99.90
60717;DHT22;46566;52.700;6.192;2023-06-22T18:44:25;20.20;99.90
60717;DHT22;46566;52.700;6.192;2023-06-22T18:46:52;20.10;99.90
60717;DHT22;46566;52.700;6.192;2023-06-22T18:49:22;20.10;99.90
60717;DHT22;46566;52.700;6.192;2023-06-22T18:54:48;20.00;99.90
60717;DHT22;46566;52.700;6.192;2023-06-22T18:57:16;20.00;99.90
60717;DHT22;46566;52.700;6.192;2023-06-22T19:00:08;19.90;99.90
60717;DHT22;46566;52.700;6.192;2023-06-22T19:13:27;19.70;99.90